الصفحة الرئيسية
METAR-TAF:

METAR-TAF

مطار :

Gladstone, أستراليا

دائرة عرض: 23-52-11S, خط طول: 151-13-22E, ارتفاع: 18 متر

مراقبة الطقس الحالي

تاريخ ووقت الإصدار 44 دقيقة قبل الساعة 20:00UTC
ريح 7 عقدة من الجنوب/الجنوب الغربي
درجة الحرارة 18°درجة مئوية
الرطوبة 68%
ضغط 1015 hPa
الرؤية 10 كم أو أكثر

METAR: YGLA 172000Z AUTO 20007KT 9999 // NCD 18/12 Q1015

زمن: 06:44 (20:44 UTC)

توقعات

تاريخ ووقت الإصدار 3ساعات و 25 دقيقة قبل الساعة 17:19UTC
التوقعات صالحة من17 الساعة 18 UTC إلى 18 الساعة 06 UTC
ريح 8 عقدة من الجنوب/الجنوب الغربي
الرؤية 10 كم أو أكثر
غيوم قليلة على ارتفاع 3000 قدم
من 18 الساعة 0000 UTC
ريح 10 عقدة من الشرق/الجنوب الشرقي
الرؤية 10 كم أو أكثر
الغيوم لا تقل 1500 م ولا وجود لمزنة ركامية السحاب الأسود

TAF: YGLA 171719Z 1718/1806 21008KT 9999 FEW030 FM180000 12010KT CAVOK

أرصاد الطقس والتوقعات من أكثر من 4000 مطار (تقارير الطقس للمطار METAR والتنبؤ بالطقس بالمطارTAF).

المحطات المتاحة هي النقط الصفراء والحمراء على الخريطة.

حرك المؤشر فوق النقطة لمعرفة اسم المحطة.

ثم انقر لمعرفة أرصاد وتوقعات الطقس.

لتغيير الخارطة: اضغط على الأزرار الخضراء مع رمز الصليب الأسود للتكبير. على الزر الأخضر مع شرطة للتصغير، أو على الأسهم الخضراء للخرائط المجاورة.


METAR-TAF: